Weather forecast for Mishelevka (Мишелевка)

Russia, 412 m
N52.890, E103.197


Sounding

Red line — air temperature ˚C.
Blue line — thermal bubble temperature ˚C.
Green line — dew point temperature ˚C.
Wind speed is in meters per second.

Table forecast

GFS 0.25˚ model

temp. wind gust humid. clouds prec. press. hpbl
Sat18 00:00 -15 140.0 se 2 3 91 100 0.0 1023 21
03:00 -18 146.0 se 3 3 93 68 0.0 1021 22
06:00 -19 158.0 sse 3 3 97 0 0.0 1020 27
09:00 -20 142.0 se 2 3 98 12 0.0 1018 20
12:00 -16 135.0 se 2 4 90 80 0.0 1017 102
15:00 -12 128.0 se 1 2 85 90 0.0 1014 109
18:00 -13 57.0 ene 1 1 87 100 0.0 1014 20
21:00 -11 222.0 sw 2 2 83 100 0.0 1017 24
 
Sun19 00:00 -11 223.0 sw 2 3 80 100 0.0 1018 23
03:00 -10 272.0 w 4 9 76 100 0.0 1019 160
06:00 -14 317.0 nw 6 18 80 63 0.0 1024 786
09:00 -18 322.0 nw 6 17 74 32 0.0 1030 515
12:00 -19 296.0 wnw 2 3 84 0 0.0 1031 80
15:00 -16 176.0 s 1 2 82 0 0.0 1028 155
18:00 -18 121.0 ese 3 4 89 0 0.0 1026 46
21:00 -20 116.0 ese 4 10 88 17 0.0 1024 153
 
Mon20 00:00 -19 123.0 ese 5 11 86 100 0.0 1020 234
03:00 -20 128.0 se 4 9 87 83 0.0 1017 135
06:00 -21 133.0 se 3 3 90 51 0.0 1015 27
09:00 -22 140.0 se 2 3 93 60 0.0 1015 21
12:00 -18 111.0 ese 2 3 90 94 0.0 1015 83
15:00 -14 34.0 ne 0 1 84 93 0.0 1013 122
18:00 -16 153.0 sse 2 2 85 68 0.0 1016 20
21:00 -17 130.0 se 1 2 86 82 0.0 1019 20
 
Tue21 00:00 -19 73.0 ene 1 1 94 33 0.0 1020 20
03:00 -19 155.0 sse 2 2 95 17 0.0 1020 20
06:00 -19 115.0 ese 2 2 93 76 0.0 1019 20
09:00 -18 39.0 ne 1 2 93 87 0.0 1020 20
12:00 -17 353.0 n 2 3 91 100 0.0 1020 66
15:00 -16 355.0 n 2 3 89 67 0.0 1019 196
18:00 -20 85.0 e 1 1 98 0 0.0 1019 20
21:00 -20 135.0 se 3 3 95 31 0.0 1019 31
 
Wed22 00:00 -20 140.0 se 3 4 98 72 0.0 1016 62
03:00 -20 155.0 sse 2 2 95 66 0.0 1016 20
06:00 -21 213.0 ssw 0 1 86 71 0.0 1016 20
09:00 -18 328.0 nnw 4 7 87 86 0.0 1020 169
12:00 -16 336.0 nnw 6 12 88 100 0.0 1024 785
15:00 -17 323.0 nw 7 11 86 100 0.2 1029 936
18:00 -22 325.0 nw 4 6 84 68 0.0 1034 121
21:00 -27 319.0 nw 2 3 87 34 0.0 1041 19
 

0.010 s